Time;durP1;ratioP1;P1;durP2;ratioP2;P2;SDS_P1;SDS_P2;PMS_P1;PMS_P2;Temp;Humidity;BMP_temperature;BMP_pressure;BME280_temperature;BME280_humidity;BME280_pressure;Samples;Min_cycle;Max_cycle;Signal;HPM_P1;HPM_P2
2022/10/02 00:02:30;;;;;;;5.47;2.83;;;13.90;99.90;;;;;;5028262;28;20615;-87
2022/10/02 00:05:03;;;;;;;3.93;2.80;;;14.00;99.90;;;;;;5031561;28;20216;-86
2022/10/02 00:07:37;;;;;;;4.27;2.73;;;14.00;99.90;;;;;;5030120;28;20194;-86
2022/10/02 00:10:13;;;;;;;4.20;2.63;;;13.90;99.90;;;;;;5025670;28;20250;-85
2022/10/02 00:12:39;;;;;;;3.73;2.37;;;14.00;99.90;;;;;;5016301;28;20208;-86
2022/10/02 00:15:17;;;;;;;4.70;2.60;;;14.00;99.90;;;;;;5022302;28;20211;-87
2022/10/02 00:17:48;;;;;;;3.17;2.50;;;14.20;99.90;;;;;;5022684;28;20213;-85
2022/10/02 00:20:17;;;;;;;3.63;2.67;;;14.20;99.90;;;;;;5021163;28;20198;-86
2022/10/02 00:22:50;;;;;;;3.27;2.40;;;14.20;99.90;;;;;;5024583;28;20209;-86
2022/10/02 00:25:43;;;;;;;4.47;2.70;;;14.20;99.90;;;;;;5011956;28;20200;-88
2022/10/02 00:28:15;;;;;;;4.73;2.60;;;14.20;99.90;;;;;;5018770;28;20246;-87
2022/10/02 00:30:59;;;;;;;4.40;2.67;;;14.20;99.90;;;;;;5016624;28;20294;-87
2022/10/02 00:33:31;;;;;;;5.40;2.80;;;14.20;99.90;;;;;;5021175;28;20766;-87
2022/10/02 00:35:57;;;;;;;4.00;2.63;;;14.20;99.90;;;;;;5022434;28;20191;-87
2022/10/02 00:38:38;;;;;;;5.27;2.73;;;14.20;99.90;;;;;;5023297;28;20206;-86
2022/10/02 00:41:31;;;;;;;3.87;2.83;;;14.10;99.90;;;;;;5014274;28;20195;-86
2022/10/02 00:44:26;;;;;;;4.30;2.47;;;14.20;99.90;;;;;;5025149;28;20191;-86
2022/10/02 00:46:56;;;;;;;4.77;2.50;;;14.10;99.90;;;;;;5015301;28;20233;-86
2022/10/02 00:49:22;;;;;;;6.97;2.70;;;14.20;99.90;;;;;;5024130;28;20240;-86
2022/10/02 00:52:13;;;;;;;4.43;2.67;;;14.10;99.90;;;;;;5023516;28;20214;-87
2022/10/02 00:54:57;;;;;;;2.93;2.53;;;14.00;99.90;;;;;;5014703;28;20177;-86
2022/10/02 00:57:35;;;;;;;5.63;2.83;;;14.00;99.90;;;;;;5024735;28;20383;-87
2022/10/02 01:00:12;;;;;;;4.00;2.57;;;14.10;99.90;;;;;;5020699;28;20186;-86
2022/10/02 01:03:00;;;;;;;7.23;2.87;;;14.00;99.90;;;;;;5024344;28;20206;-86
2022/10/02 01:05:26;;;;;;;3.70;2.93;;;14.10;99.90;;;;;;5012425;28;20184;-87
2022/10/02 01:07:53;;;;;;;3.87;2.60;;;14.00;99.90;;;;;;5023963;28;20224;-86
2022/10/02 01:10:24;;;;;;;5.43;3.00;;;14.10;99.90;;;;;;5024417;28;20191;-86
2022/10/02 01:12:51;;;;;;;5.23;2.90;;;14.00;99.90;;;;;;5023170;28;20271;-86
2022/10/02 01:15:19;;;;;;;6.33;2.83;;;14.00;99.90;;;;;;5023649;28;20221;-86
2022/10/02 01:17:50;;;;;;;5.30;2.90;;;14.10;99.90;;;;;;5023585;28;20195;-87
2022/10/02 01:20:44;;;;;;;6.10;3.07;;;14.10;99.90;;;;;;5017129;28;20237;-86
2022/10/02 01:23:42;;;;;;;6.30;2.80;;;14.10;99.90;;;;;;5021300;28;20214;-86
2022/10/02 01:26:08;;;;;;;3.97;2.70;;;14.00;99.90;;;;;;5024886;28;20193;-87
2022/10/02 01:28:34;;;;;;;4.47;2.67;;;14.00;99.90;;;;;;5013768;28;20201;-86
2022/10/02 01:31:12;;;;;;;6.03;3.13;;;14.20;99.90;;;;;;5024045;28;20220;-86
2022/10/02 01:33:41;;;;;;;9.27;3.20;;;14.20;99.90;;;;;;5023315;28;20188;-87
2022/10/02 01:36:10;;;;;;;8.30;2.93;;;14.20;99.90;;;;;;5021822;28;20189;-86
2022/10/02 01:38:36;;;;;;;7.40;3.37;;;14.20;99.90;;;;;;5019052;28;20245;-87
2022/10/02 01:41:02;;;;;;;9.07;2.90;;;14.20;99.90;;;;;;5022001;28;20232;-86
2022/10/02 01:43:35;;;;;;;6.13;3.27;;;14.10;99.90;;;;;;5022447;28;20214;-86
2022/10/02 01:46:26;;;;;;;5.57;2.73;;;14.30;99.90;;;;;;5021395;28;20276;-87
2022/10/02 01:49:02;;;;;;;6.80;3.10;;;14.30;99.90;;;;;;5004900;28;20186;-86
2022/10/02 01:51:27;;;;;;;6.97;3.20;;;14.30;99.90;;;;;;5023781;28;20188;-86
2022/10/02 01:54:00;;;;;;;6.13;2.77;;;14.40;99.90;;;;;;5022677;28;20190;-86
2022/10/02 01:56:35;;;;;;;5.27;3.00;;;14.30;99.90;;;;;;5023063;28;20596;-86
2022/10/02 01:59:30;;;;;;;5.47;3.50;;;14.40;99.90;;;;;;5018562;28;20191;-86
2022/10/02 02:02:18;;;;;;;7.50;3.33;;;14.30;99.90;;;;;;4990654;28;20236;-87
2022/10/02 02:04:59;;;;;;;7.23;3.20;;;14.30;99.90;;;;;;5023620;28;20187;-86
2022/10/02 02:08:17;;;;;;;9.40;3.97;;;14.40;99.90;;;;;;5022941;28;20187;-87
2022/10/02 02:10:57;;;;;;;4.00;3.00;;;14.20;99.90;;;;;;4987437;28;20248;-86
2022/10/02 02:13:50;;;;;;;5.47;3.00;;;14.20;99.90;;;;;;5025395;28;20765;-87
2022/10/02 02:16:42;;;;;;;9.73;3.37;;;14.20;99.90;;;;;;5036264;28;20174;-88
2022/10/02 02:19:41;;;;;;;7.63;3.07;;;14.20;99.90;;;;;;5030158;28;20201;-87
2022/10/02 02:22:20;;;;;;;8.50;3.70;;;14.20;99.90;;;;;;5027189;28;20345;-87
2022/10/02 02:25:00;;;;;;;7.60;3.07;;;14.40;99.90;;;;;;5022640;28;20192;-86
2022/10/02 02:27:29;;;;;;;8.83;3.27;;;14.50;99.90;;;;;;5023214;28;20185;-86
2022/10/02 02:30:01;;;;;;;5.93;3.40;;;14.40;99.90;;;;;;5022311;28;20201;-87
2022/10/02 02:32:32;;;;;;;6.73;3.30;;;14.30;99.90;;;;;;5021798;28;20217;-86
2022/10/02 02:35:06;;;;;;;5.30;2.97;;;14.20;99.90;;;;;;5022487;28;20196;-86
2022/10/02 02:37:35;;;;;;;7.10;3.40;;;14.20;99.90;;;;;;5022823;28;20290;-87
2022/10/02 02:40:06;;;;;;;4.30;2.93;;;14.30;99.90;;;;;;5022249;28;20279;-86
2022/10/02 02:42:35;;;;;;;6.93;3.17;;;14.30;99.90;;;;;;5021812;28;20227;-87
2022/10/02 02:45:17;;;;;;;5.23;3.10;;;14.30;99.90;;;;;;5021648;28;20195;-86
2022/10/02 02:47:43;;;;;;;6.33;3.30;;;14.40;99.90;;;;;;5007371;28;20227;-87
2022/10/02 02:50:37;;;;;;;7.70;3.77;;;14.40;99.90;;;;;;5017823;28;20193;-86
2022/10/02 02:53:09;;;;;;;4.50;3.00;;;14.50;99.90;;;;;;5021374;28;20304;-86
2022/10/02 02:55:52;;;;;;;3.50;2.70;;;14.50;99.90;;;;;;5022418;28;20223;-87
2022/10/02 02:58:21;;;;;;;7.60;3.60;;;14.50;99.90;;;;;;5018973;28;20214;-86
2022/10/02 03:00:47;;;;;;;5.13;3.27;;;14.30;99.90;;;;;;5022001;28;20194;-87
2022/10/02 03:03:32;;;;;;;7.73;2.90;;;14.30;99.90;;;;;;5022419;28;20351;-87
2022/10/02 03:06:21;;;;;;;6.40;3.33;;;14.30;99.90;;;;;;5032147;28;20212;-87
2022/10/02 03:08:50;;;;;;;6.30;2.77;;;14.30;99.90;;;;;;5015598;28;20182;-87
2022/10/02 03:11:24;;;;;;;11.80;3.17;;;14.40;99.90;;;;;;5025552;28;20174;-87
2022/10/02 03:14:18;;;;;;;8.97;3.30;;;14.40;99.90;;;;;;5025245;28;20198;-86
2022/10/02 03:17:11;;;;;;;8.23;3.07;;;14.40;99.90;;;;;;5021846;28;20262;-87
2022/10/02 03:20:02;;;;;;;5.40;2.90;;;14.30;99.90;;;;;;5023414;28;20273;-86
2022/10/02 03:22:54;;;;;;;7.57;3.10;;;14.30;99.90;;;;;;5024519;28;20267;-86
2022/10/02 03:25:36;;;;;;;7.63;2.97;;;14.30;99.90;;;;;;5011094;28;20193;-86
2022/10/02 03:28:14;;;;;;;7.03;3.00;;;14.20;99.90;;;;;;5020496;28;20187;-87
2022/10/02 03:30:40;;;;;;;4.20;3.10;;;14.20;99.90;;;;;;5024382;28;20732;-87
2022/10/02 03:33:08;;;;;;;7.00;2.97;;;14.20;99.90;;;;;;5023962;28;20574;-87
2022/10/02 03:35:34;;;;;;;8.10;2.67;;;14.20;99.90;;;;;;5025411;28;20237;-86
2022/10/02 03:38:05;;;;;;;6.50;2.93;;;14.20;99.90;;;;;;5026032;28;20268;-86
2022/10/02 03:40:31;;;;;;;8.13;3.10;;;14.20;99.90;;;;;;5023148;28;20185;-86
2022/10/02 03:42:57;;;;;;;6.13;2.63;;;14.20;99.90;;;;;;5025946;28;20214;-86
2022/10/02 03:45:27;;;;;;;7.10;3.00;;;14.10;99.90;;;;;;5025579;28;20667;-86
2022/10/02 03:47:53;;;;;;;6.60;2.77;;;14.20;99.90;;;;;;5025961;28;20200;-86
2022/10/02 03:50:20;;;;;;;5.20;2.80;;;14.20;99.90;;;;;;5022497;28;20194;-86
2022/10/02 03:52:49;;;;;;;6.70;2.70;;;14.20;99.90;;;;;;5017407;28;20213;-86
2022/10/02 03:55:34;;;;;;;4.53;2.70;;;14.20;99.90;;;;;;5018173;28;20181;-86
2022/10/02 03:58:11;;;;;;;8.00;2.80;;;14.30;99.90;;;;;;5023937;28;20235;-87
2022/10/02 04:01:11;;;;;;;5.90;2.90;;;14.10;99.90;;;;;;5026444;28;20186;-86
2022/10/02 04:03:57;;;;;;;5.57;2.53;;;14.20;99.90;;;;;;5021469;28;20204;-86
2022/10/02 04:06:46;;;;;;;9.87;3.23;;;14.10;99.90;;;;;;5023320;28;20182;-86
2022/10/02 04:09:22;;;;;;;7.87;3.47;;;13.90;99.90;;;;;;5024228;28;20187;-86
2022/10/02 04:11:58;;;;;;;6.40;3.17;;;13.80;99.90;;;;;;5025469;28;20760;-86
2022/10/02 04:14:35;;;;;;;5.47;2.90;;;13.80;99.90;;;;;;5024453;28;20228;-86
2022/10/02 04:17:24;;;;;;;8.30;3.23;;;13.80;99.90;;;;;;5026229;28;20209;-87
2022/10/02 04:20:05;;;;;;;6.37;3.23;;;13.80;99.90;;;;;;5019932;28;20174;-86
2022/10/02 04:22:31;;;;;;;4.73;2.93;;;13.80;99.90;;;;;;5026585;28;20219;-87
2022/10/02 04:24:59;;;;;;;5.43;3.33;;;13.90;99.90;;;;;;5036254;28;20189;-87
2022/10/02 04:27:37;;;;;;;7.60;3.10;;;13.90;99.90;;;;;;5033206;28;20190;-86
2022/10/02 04:30:08;;;;;;;6.10;3.10;;;13.90;99.90;;;;;;5027716;28;20228;-86
2022/10/02 04:32:36;;;;;;;3.93;3.00;;;13.90;99.90;;;;;;5020775;28;20229;-86
2022/10/02 04:35:26;;;;;;;6.17;3.57;;;14.00;99.90;;;;;;5017361;28;20264;-86
2022/10/02 04:38:19;;;;;;;3.37;2.97;;;14.10;99.90;;;;;;5020822;28;20704;-86
2022/10/02 04:41:02;;;;;;;6.77;3.03;;;14.20;99.90;;;;;;5021552;28;20181;-86
2022/10/02 04:43:55;;;;;;;6.70;3.33;;;14.20;99.90;;;;;;5018212;28;20264;-87
2022/10/02 04:46:54;;;;;;;6.40;3.47;;;14.20;99.90;;;;;;5021325;28;20572;-86
2022/10/02 04:49:20;;;;;;;5.83;3.57;;;14.30;99.90;;;;;;5021230;28;20212;-86
2022/10/02 04:52:22;;;;;;;5.67;3.60;;;14.20;99.90;;;;;;5020251;28;20828;-86
2022/10/02 04:55:25;;;;;;;4.60;2.67;;;14.20;99.90;;;;;;5010231;28;20193;-86
2022/10/02 04:58:11;;;;;;;6.43;3.30;;;14.30;99.90;;;;;;5017900;28;20216;-86
2022/10/02 05:00:54;;;;;;;7.43;3.27;;;14.20;99.90;;;;;;5022930;28;20241;-88
2022/10/02 05:03:38;;;;;;;5.60;2.90;;;14.20;99.90;;;;;;5036522;28;20201;-87
2022/10/02 05:06:18;;;;;;;7.03;3.30;;;14.10;99.90;;;;;;5030391;28;20188;-86
2022/10/02 05:09:11;;;;;;;6.77;3.17;;;14.10;99.90;;;;;;5021405;28;20185;-87
2022/10/02 05:11:59;;;;;;;6.57;3.17;;;14.00;99.90;;;;;;5019844;28;20219;-86
2022/10/02 05:14:46;;;;;;;7.43;3.53;;;13.90;99.90;;;;;;5025320;28;20576;-86
2022/10/02 05:17:41;;;;;;;4.37;3.30;;;13.90;99.90;;;;;;5018802;28;20225;-86
2022/10/02 05:20:37;;;;;;;8.23;3.50;;;14.00;99.90;;;;;;5021580;28;20190;-87
2022/10/02 05:23:15;;;;;;;4.93;3.07;;;14.10;99.90;;;;;;5019388;28;20209;-87
2022/10/02 05:25:48;;;;;;;7.40;3.13;;;14.00;99.90;;;;;;5020065;28;20177;-86
2022/10/02 05:28:28;;;;;;;5.43;3.17;;;13.90;99.90;;;;;;5016941;28;20189;-86
2022/10/02 05:31:18;;;;;;;5.10;3.20;;;13.80;99.90;;;;;;5020132;28;20315;-86
2022/10/02 05:34:08;;;;;;;11.10;3.50;;;13.80;99.90;;;;;;5018763;28;20191;-86
2022/10/02 05:37:14;;;;;;;3.90;3.30;;;13.80;99.90;;;;;;5015352;28;20216;-86
2022/10/02 05:39:51;;;;;;;5.20;3.50;;;13.80;99.90;;;;;;5015826;28;20201;-86
2022/10/02 05:42:23;;;;;;;10.00;3.60;;;13.70;99.90;;;;;;5016876;28;20214;-86
2022/10/02 05:45:04;;;;;;;7.47;3.27;;;13.70;99.90;;;;;;5019564;28;20249;-86
2022/10/02 05:47:36;;;;;;;6.93;3.07;;;13.70;99.90;;;;;;5019633;28;20195;-86
2022/10/02 05:50:10;;;;;;;7.87;3.50;;;13.70;99.90;;;;;;5018642;28;20187;-86
2022/10/02 05:52:51;;;;;;;4.97;2.70;;;13.60;99.90;;;;;;5018541;28;20202;-86
2022/10/02 05:55:23;;;;;;;9.27;3.43;;;13.50;99.90;;;;;;5017003;28;20227;-86
2022/10/02 05:58:23;;;;;;;5.63;3.10;;;13.50;99.90;;;;;;5017454;28;20205;-86
2022/10/02 06:01:13;;;;;;;6.20;3.30;;;13.50;99.90;;;;;;5017226;28;20212;-86
2022/10/02 06:03:59;;;;;;;6.73;2.83;;;13.50;99.90;;;;;;5016012;28;20174;-86
2022/10/02 06:06:24;;;;;;;5.60;3.00;;;13.40;99.90;;;;;;5020215;28;20187;-87
2022/10/02 06:09:14;;;;;;;5.40;2.73;;;13.40;99.90;;;;;;5009981;28;20207;-86
2022/10/02 06:11:51;;;;;;;6.17;2.83;;;13.40;99.90;;;;;;5016279;28;20334;-86
2022/10/02 06:14:42;;;;;;;5.03;2.63;;;13.50;99.90;;;;;;5020056;28;20183;-86
2022/10/02 06:17:35;;;;;;;6.97;2.83;;;13.60;99.90;;;;;;5020614;28;20210;-87
2022/10/02 06:20:00;;;;;;;6.47;2.80;;;13.60;99.90;;;;;;5013594;28;20197;-86
2022/10/02 06:22:50;;;;;;;9.47;3.07;;;13.60;99.90;;;;;;5016518;28;20210;-86
2022/10/02 06:25:37;;;;;;;3.37;2.60;;;13.60;99.90;;;;;;5016159;28;20185;-86
2022/10/02 06:28:16;;;;;;;3.80;2.70;;;13.70;99.90;;;;;;5015691;28;20198;-86
2022/10/02 06:30:48;;;;;;;5.73;2.90;;;13.80;99.90;;;;;;5015029;28;20332;-86
2022/10/02 06:33:16;;;;;;;4.80;2.50;;;13.80;99.90;;;;;;5015423;28;20221;-85
2022/10/02 06:36:00;;;;;;;2.90;2.60;;;13.90;99.90;;;;;;5018649;28;20672;-86
2022/10/02 06:38:44;;;;;;;4.67;2.93;;;13.80;99.90;;;;;;5017797;28;20212;-86
2022/10/02 06:41:40;;;;;;;4.87;2.50;;;13.70;99.90;;;;;;5011712;28;20201;-86
2022/10/02 06:44:39;;;;;;;4.37;2.93;;;13.70;99.90;;;;;;5018498;28;20187;-86
2022/10/02 06:47:16;;;;;;;4.67;2.80;;;13.80;99.90;;;;;;5011056;28;20223;-85
2022/10/02 06:50:00;;;;;;;6.50;3.00;;;13.80;99.90;;;;;;5022721;28;20249;-85
2022/10/02 06:52:29;;;;;;;5.00;2.90;;;13.70;99.90;;;;;;5028020;28;20717;-85
2022/10/02 06:55:16;;;;;;;5.07;3.10;;;13.70;99.90;;;;;;5021842;28;20199;-86
2022/10/02 06:58:39;;;;;;;13.60;10.20;;;13.70;99.90;;;;;;5020452;28;20209;-86
2022/10/02 07:01:07;;;;;;;28.30;22.00;;;13.80;99.90;;;;;;4960096;28;20238;-85
2022/10/02 07:03:41;;;;;;;5.83;4.83;;;13.90;99.90;;;;;;4961660;28;20730;-85
2022/10/02 07:06:16;;;;;;;4.67;4.13;;;13.90;99.90;;;;;;5004659;28;20467;-86
2022/10/02 07:08:44;;;;;;;3.23;2.73;;;13.90;99.90;;;;;;5018939;28;20267;-85
2022/10/02 07:11:33;;;;;;;4.67;3.37;;;13.90;99.90;;;;;;5021746;28;20203;-85
2022/10/02 07:14:07;;;;;;;5.77;2.93;;;14.00;99.90;;;;;;5017975;28;20189;-85
2022/10/02 07:16:33;;;;;;;3.57;2.60;;;14.00;99.90;;;;;;5019038;28;20188;-85
2022/10/02 07:19:08;;;;;;;5.13;2.80;;;14.00;99.90;;;;;;5020545;28;20192;-86
2022/10/02 07:21:58;;;;;;;3.00;2.70;;;13.90;99.90;;;;;;5020560;28;20710;-85
2022/10/02 07:25:09;;;;;;;6.63;3.00;;;13.80;99.90;;;;;;5019471;28;20174;-85
2022/10/02 07:27:41;;;;;;;3.23;2.70;;;13.70;99.90;;;;;;4985613;28;20286;-86
2022/10/02 07:30:15;;;;;;;5.67;2.90;;;13.70;99.90;;;;;;4978652;28;20207;-85
2022/10/02 07:32:47;;;;;;;3.03;2.43;;;13.80;99.90;;;;;;5000997;28;20656;-85
2022/10/02 07:35:25;;;;;;;3.60;3.10;;;13.70;99.90;;;;;;5015073;28;20312;-85
2022/10/02 07:38:08;;;;;;;7.43;4.00;;;13.60;99.90;;;;;;5005690;28;20553;-86
2022/10/02 07:40:46;;;;;;;5.63;4.27;;;13.60;99.90;;;;;;5017921;28;20177;-86
2022/10/02 07:43:30;;;;;;;6.10;3.80;;;13.60;99.90;;;;;;5017054;28;20211;-86
2022/10/02 07:46:22;;;;;;;4.27;3.30;;;13.60;99.90;;;;;;5017452;28;20269;-86
2022/10/02 07:49:16;;;;;;;5.23;3.70;;;13.70;99.90;;;;;;5016154;28;20227;-86
2022/10/02 07:52:02;;;;;;;5.37;3.10;;;13.70;99.90;;;;;;5028731;28;20213;-85
2022/10/02 07:54:47;;;;;;;5.00;3.40;;;13.60;99.90;;;;;;5018056;28;20171;-85
2022/10/02 07:57:44;;;;;;;4.43;3.00;;;13.60;99.90;;;;;;5014701;28;20213;-86
2022/10/02 08:00:15;;;;;;;4.10;3.20;;;13.60;99.90;;;;;;4981422;28;20185;-86
2022/10/02 08:02:56;;;;;;;4.50;2.73;;;13.50;99.90;;;;;;5017998;28;20206;-86
2022/10/02 08:05:29;;;;;;;5.70;3.83;;;13.50;99.90;;;;;;5017051;28;20248;-86
2022/10/02 08:08:16;;;;;;;6.00;3.53;;;13.60;99.90;;;;;;5020976;28;20197;-86
2022/10/02 08:10:46;;;;;;;3.50;3.20;;;13.70;99.90;;;;;;5013786;28;20196;-87
2022/10/02 08:13:20;;;;;;;3.07;2.77;;;13.80;99.90;;;;;;5012253;28;20228;-85
2022/10/02 08:15:50;;;;;;;5.07;2.90;;;13.90;99.90;;;;;;5018963;28;20220;-85
2022/10/02 08:18:31;;;;;;;3.63;3.10;;;13.80;99.90;;;;;;5017598;28;20200;-85
2022/10/02 08:20:58;;;;;;;2.77;2.57;;;13.90;99.90;;;;;;5019456;28;20379;-85
2022/10/02 08:23:49;;;;;;;3.87;2.73;;;13.90;99.90;;;;;;5020222;28;20593;-85
2022/10/02 08:26:30;;;;;;;3.33;2.80;;;14.00;99.90;;;;;;5017361;28;20229;-86
2022/10/02 08:29:16;;;;;;;3.90;2.87;;;14.10;99.90;;;;;;5022288;28;20415;-85
2022/10/02 08:31:42;;;;;;;6.70;5.63;;;14.20;99.90;;;;;;5026042;28;20240;-86
2022/10/02 08:34:27;;;;;;;5.50;5.00;;;14.30;99.90;;;;;;5026612;28;20796;-86
2022/10/02 08:37:13;;;;;;;3.23;2.80;;;14.40;99.90;;;;;;5023177;28;20203;-86
2022/10/02 08:40:00;;;;;;;4.07;2.60;;;14.40;99.90;;;;;;5018591;28;20178;-86
2022/10/02 08:42:32;;;;;;;4.23;3.10;;;14.50;99.90;;;;;;5020810;28;20404;-86
2022/10/02 08:45:22;;;;;;;4.70;3.33;;;14.50;99.90;;;;;;5025511;28;20200;-86
2022/10/02 08:48:06;;;;;;;3.50;3.17;;;14.30;99.90;;;;;;5022664;28;20201;-86
2022/10/02 08:50:44;;;;;;;3.70;2.80;;;14.30;99.90;;;;;;5029773;28;20190;-86
2022/10/02 08:53:16;;;;;;;8.50;7.70;;;14.40;99.90;;;;;;5025316;28;20363;-87
2022/10/02 08:56:17;;;;;;;11.53;10.53;;;14.40;99.90;;;;;;5020491;28;20189;-86
2022/10/02 08:58:46;;;;;;;4.27;3.00;;;14.40;99.90;;;;;;5016824;28;20545;-86
2022/10/02 09:01:41;;;;;;;3.33;3.03;;;14.30;99.90;;;;;;5026707;28;20292;-86
2022/10/02 09:04:27;;;;;;;3.30;2.30;;;14.30;99.90;;;;;;5016068;28;20279;-86
2022/10/02 09:07:18;;;;;;;7.23;6.73;;;14.20;99.90;;;;;;5014917;28;20186;-86
2022/10/02 09:10:08;;;;;;;2.23;2.03;;;14.30;99.90;;;;;;5014213;28;20174;-86
2022/10/02 09:12:48;;;;;;;2.73;2.50;;;14.30;99.90;;;;;;5014128;28;20335;-86
2022/10/02 09:15:37;;;;;;;2.40;2.17;;;14.40;99.90;;;;;;5010795;28;20228;-86
2022/10/02 09:18:40;;;;;;;2.63;2.37;;;14.50;99.90;;;;;;5021807;28;20206;-85
2022/10/02 09:21:16;;;;;;;2.67;2.20;;;14.50;99.90;;;;;;5010218;28;20297;-86
2022/10/02 09:24:06;;;;;;;3.63;3.37;;;14.30;99.90;;;;;;5016811;28;20192;-86
2022/10/02 09:26:50;;;;;;;2.80;2.00;;;14.50;99.90;;;;;;5011337;28;20264;-88
2022/10/02 09:29:18;;;;;;;5.53;5.03;;;14.50;99.90;;;;;;5017292;28;20213;-85
2022/10/02 09:32:08;;;;;;;3.23;3.03;;;14.50;99.90;;;;;;5019789;28;20552;-85
2022/10/02 09:34:46;;;;;;;2.03;1.93;;;14.50;99.90;;;;;;5014101;28;20182;-86
2022/10/02 09:37:34;;;;;;;2.40;2.20;;;14.60;99.90;;;;;;5013193;28;20265;-86
2022/10/02 09:40:14;;;;;;;2.63;2.43;;;14.60;99.90;;;;;;5017242;28;20173;-86
2022/10/02 09:43:02;;;;;;;8.60;8.00;;;14.70;99.90;;;;;;5014616;28;20268;-85
2022/10/02 09:46:02;;;;;;;7.33;6.83;;;14.70;99.90;;;;;;5012103;28;20822;-86
2022/10/02 09:48:31;;;;;;;2.70;2.00;;;14.80;99.90;;;;;;5015976;28;20187;-86
2022/10/02 09:51:17;;;;;;;2.97;2.40;;;14.90;99.90;;;;;;5018689;28;20694;-86
2022/10/02 09:53:51;;;;;;;2.40;2.20;;;14.80;99.90;;;;;;5020164;28;20460;-86
2022/10/02 09:56:28;;;;;;;3.87;3.57;;;14.70;99.90;;;;;;5021337;28;20202;-86
2022/10/02 09:59:16;;;;;;;3.87;3.57;;;14.60;99.90;;;;;;5020330;28;20288;-85
2022/10/02 10:02:06;;;;;;;2.80;2.60;;;14.50;99.90;;;;;;5014159;28;20302;-86
2022/10/02 10:05:13;;;;;;;3.93;3.53;;;14.60;99.90;;;;;;5023790;28;20198;-88
2022/10/02 10:07:47;;;;;;;3.80;3.43;;;14.80;99.90;;;;;;5024496;28;20179;-86
2022/10/02 10:10:40;;;;;;;2.73;2.53;;;14.80;99.90;;;;;;5020732;28;20257;-86
2022/10/02 10:13:16;;;;;;;2.13;2.00;;;14.90;99.90;;;;;;5024064;28;20295;-86
2022/10/02 10:15:45;;;;;;;2.03;1.90;;;14.90;99.90;;;;;;5027012;28;20187;-86
2022/10/02 10:18:50;;;;;;;2.60;2.40;;;14.90;99.90;;;;;;5022815;28;20728;-87
2022/10/02 10:21:47;;;;;;;6.40;6.00;;;14.80;99.90;;;;;;5012408;28;20193;-86
2022/10/02 10:24:20;;;;;;;3.90;3.70;;;14.70;99.90;;;;;;5026059;28;20265;-86
2022/10/02 10:27:46;;;;;;;2.60;2.40;;;14.50;99.90;;;;;;5026027;28;20205;-86
2022/10/02 10:30:55;;;;;;;2.83;2.63;;;14.50;99.90;;;;;;4933226;29;20203;-85
2022/10/02 10:34:04;;;;;;;5.60;5.20;;;14.60;99.90;;;;;;5023426;28;20197;-88
2022/10/02 10:40:05;;;;;;;2.23;2.03;;;14.60;99.90;;;;;;5022830;28;20239;-86
2022/10/02 10:43:03;;;;;;;2.10;2.00;;;14.70;99.90;;;;;;5017366;28;20889;-86
2022/10/02 10:46:07;;;;;;;1.67;1.57;;;14.90;99.90;;;;;;5019741;28;20281;-86
2022/10/02 10:49:10;;;;;;;2.07;1.97;;;14.90;99.90;;;;;;4994713;28;20197;-86
2022/10/02 10:51:59;;;;;;;2.67;2.00;;;14.80;99.90;;;;;;4966771;28;20201;-87
2022/10/02 10:55:01;;;;;;;1.70;1.60;;;14.90;99.90;;;;;;5009863;28;20268;-85
2022/10/02 10:57:44;;;;;;;1.93;1.83;;;14.90;99.90;;;;;;5019107;28;20261;-85
2022/10/02 11:00:14;;;;;;;2.70;2.50;;;14.90;99.90;;;;;;5015924;28;20193;-85
2022/10/02 11:03:07;;;;;;;2.40;2.30;;;14.90;99.90;;;;;;5020708;28;20278;-86
2022/10/02 11:05:48;;;;;;;2.10;2.00;;;15.00;99.90;;;;;;5019015;28;20208;-86
2022/10/02 11:08:32;;;;;;;1.90;1.80;;;14.90;99.90;;;;;;5027721;28;20397;-87
2022/10/02 11:11:20;;;;;;;1.70;1.60;;;15.00;99.90;;;;;;5014145;28;20253;-86
2022/10/02 11:13:46;;;;;;;1.87;1.77;;;15.10;99.90;;;;;;5018924;28;20270;-88
2022/10/02 11:16:21;;;;;;;3.70;3.50;;;15.00;99.90;;;;;;5014854;28;20655;-86
2022/10/02 11:19:33;;;;;;;4.17;3.97;;;15.10;99.90;;;;;;5018070;28;20203;-86
2022/10/02 11:22:24;;;;;;;3.30;3.10;;;15.20;99.90;;;;;;4957993;28;20713;-88
2022/10/02 11:25:16;;;;;;;1.87;1.77;;;15.30;99.90;;;;;;5015943;28;20290;-86
2022/10/02 11:28:00;;;;;;;3.13;2.80;;;15.30;99.90;;;;;;5016581;28;20361;-85
2022/10/02 11:30:48;;;;;;;2.00;1.90;;;15.30;99.90;;;;;;5016430;28;20202;-87
2022/10/02 11:33:30;;;;;;;2.40;2.20;;;15.30;99.90;;;;;;5010440;28;20266;-86
2022/10/02 11:36:40;;;;;;;2.58;2.38;;;15.20;99.90;;;;;;5017085;28;20199;-88
2022/10/02 11:39:25;;;;;;;6.47;5.77;;;15.30;99.90;;;;;;5018386;28;20184;-86
2022/10/02 11:42:24;;;;;;;2.37;2.20;;;15.40;99.90;;;;;;5014715;28;20206;-86
2022/10/02 11:45:11;;;;;;;2.25;2.15;;;15.40;99.90;;;;;;5012165;28;20196;-88
2022/10/02 11:48:00;;;;;;;2.00;1.90;;;15.40;99.90;;;;;;5015893;28;20190;-86
2022/10/02 11:50:56;;;;;;;1.90;1.80;;;15.30;99.90;;;;;;5013345;28;20283;-86
2022/10/02 11:53:48;;;;;;;2.20;2.10;;;15.40;99.90;;;;;;5016223;28;20215;-86
2022/10/02 11:56:30;;;;;;;2.40;2.30;;;15.50;99.90;;;;;;5016166;28;20459;-86
2022/10/02 11:59:02;;;;;;;2.30;2.10;;;15.50;99.90;;;;;;5017270;28;20345;-87
2022/10/02 12:01:44;;;;;;;1.90;1.80;;;15.50;99.90;;;;;;5015306;28;20270;-88
2022/10/02 12:04:21;;;;;;;2.33;2.13;;;15.50;99.90;;;;;;5016420;28;20653;-87
2022/10/02 12:07:14;;;;;;;2.50;2.30;;;15.60;99.90;;;;;;5017003;28;20227;-87
2022/10/02 12:09:53;;;;;;;3.30;2.33;;;15.50;99.90;;;;;;5017325;28;20187;-86
2022/10/02 12:12:37;;;;;;;2.60;2.40;;;15.30;99.90;;;;;;5014466;28;20216;-86
2022/10/02 12:15:38;;;;;;;2.13;2.03;;;15.30;99.90;;;;;;5007558;28;20189;-87
2022/10/02 12:18:30;;;;;;;2.60;2.40;;;15.50;99.90;;;;;;5013609;28;20236;-89
2022/10/02 12:27:46;;;;;;;4.05;3.75;;;15.50;99.90;;;;;;5010430;28;20253;-87
2022/10/02 12:30:17;;;;;;;2.90;2.70;;;15.60;99.90;;;;;;5016581;28;20713;-86
2022/10/02 12:33:17;;;;;;;3.33;3.13;;;15.80;99.90;;;;;;5016383;28;20215;-86
2022/10/02 12:36:17;;;;;;;3.22;3.03;;;15.80;99.90;;;;;;5013661;28;20192;-86
2022/10/02 12:38:56;;;;;;;2.75;2.55;;;15.90;99.90;;;;;;5018173;28;20248;-86
2022/10/02 12:41:24;;;;;;;3.38;2.40;;;15.90;99.90;;;;;;5017214;28;20263;-89
2022/10/02 12:44:02;;;;;;;3.83;3.53;;;15.90;99.90;;;;;;5004591;28;20570;-86
2022/10/02 12:47:17;;;;;;;3.53;3.33;;;15.70;99.90;;;;;;5006006;28;20205;-86
2022/10/02 12:49:57;;;;;;;2.65;2.45;;;15.70;99.90;;;;;;4963715;28;20231;-86
2022/10/02 12:52:58;;;;;;;3.05;2.85;;;15.80;99.90;;;;;;5011155;28;20212;-86
2022/10/02 12:55:36;;;;;;;3.70;3.40;;;15.80;99.90;;;;;;5013595;28;20184;-87
2022/10/02 12:58:19;;;;;;;3.40;3.20;;;15.70;99.90;;;;;;5008129;28;20290;-86
2022/10/02 13:00:53;;;;;;;3.47;3.17;;;15.60;99.90;;;;;;5011762;28;20216;-87
2022/10/02 13:03:25;;;;;;;2.75;2.65;;;15.60;99.90;;;;;;5011557;28;20208;-88
2022/10/02 13:06:36;;;;;;;3.35;3.05;;;15.60;99.90;;;;;;5011432;28;20185;-88
2022/10/02 13:09:05;;;;;;;3.60;3.30;;;15.60;99.90;;;;;;5000757;28;20282;-86
2022/10/02 13:11:44;;;;;;;4.53;3.38;;;15.60;99.90;;;;;;5010611;28;20185;-88
2022/10/02 13:14:16;;;;;;;3.10;2.90;;;15.60;99.90;;;;;;5010719;28;20234;-85
2022/10/02 13:16:47;;;;;;;5.45;5.05;;;15.60;99.90;;;;;;5009381;28;20217;-85
2022/10/02 13:19:23;;;;;;;5.22;4.82;;;15.60;99.90;;;;;;5010624;28;20205;-88
2022/10/02 13:22:03;;;;;;;6.57;4.78;;;15.60;99.90;;;;;;5027941;28;20194;-85
2022/10/02 13:24:46;;;;;;;5.70;5.30;;;15.50;99.90;;;;;;5023356;28;20194;-87
2022/10/02 13:27:48;;;;;;;5.07;4.68;;;15.50;99.90;;;;;;5010776;28;20192;-87
2022/10/02 13:30:22;;;;;;;5.30;4.90;;;15.50;99.90;;;;;;5008225;28;20207;-87
2022/10/02 13:33:08;;;;;;;7.07;6.57;;;15.40;99.90;;;;;;5012288;28;20223;-88
2022/10/02 13:36:11;;;;;;;5.53;4.50;;;15.70;99.90;;;;;;5013863;28;20192;-88
2022/10/02 13:39:12;;;;;;;3.97;3.58;;;15.60;99.90;;;;;;4999044;28;20593;-87
2022/10/02 13:41:45;;;;;;;4.18;3.78;;;15.50;99.90;;;;;;5013420;28;20256;-87
2022/10/02 13:44:37;;;;;;;4.05;3.75;;;15.50;99.90;;;;;;5012761;28;20195;-87
2022/10/02 13:47:22;;;;;;;4.20;3.90;;;15.40;99.90;;;;;;5012690;28;20252;-87
2022/10/02 13:50:14;;;;;;;4.82;4.47;;;15.40;99.90;;;;;;5013655;28;20743;-86
2022/10/02 13:53:11;;;;;;;7.15;6.50;;;15.50;99.90;;;;;;5013599;28;20232;-87
2022/10/02 13:55:43;;;;;;;7.30;6.70;;;15.60;99.90;;;;;;5014035;28;20189;-87
2022/10/02 13:58:09;;;;;;;6.05;5.60;;;15.50;99.90;;;;;;5012142;28;20204;-87
2022/10/02 14:00:37;;;;;;;6.85;6.35;;;15.50;99.90;;;;;;5008191;28;20185;-88
2022/10/02 14:03:10;;;;;;;5.88;5.47;;;15.70;99.90;;;;;;5011471;28;20310;-88
2022/10/02 14:05:40;;;;;;;5.80;5.30;;;15.70;99.90;;;;;;5011394;28;20255;-85
2022/10/02 14:08:18;;;;;;;5.82;5.32;;;15.80;99.90;;;;;;5014762;28;20245;-86
2022/10/02 14:11:16;;;;;;;5.43;4.97;;;15.80;99.90;;;;;;5011852;28;20197;-88
2022/10/02 14:13:54;;;;;;;5.40;5.00;;;15.70;99.90;;;;;;5007006;28;20182;-86